Time;durP1;ratioP1;P1;durP2;ratioP2;P2;SDS_P1;SDS_P2;PMS_P1;PMS_P2;Temp;Humidity;BMP_temperature;BMP_pressure;BME280_temperature;BME280_humidity;BME280_pressure;Samples;Min_cycle;Max_cycle;Signal;HPM_P1;HPM_P2
2022/08/22 00:00:32;;;;;;;6.47;2.00;;;;;;;19.81;73.26;98989.75;7739312;32;40146;-73
2022/08/22 00:05:25;;;;;;;3.30;1.98;;;;;;;19.44;74.71;99000.94;7737980;32;38071;-73
2022/08/22 00:10:19;;;;;;;5.03;2.62;;;;;;;19.76;73.56;98992.78;7741440;32;36861;-73
2022/08/22 00:14:57;;;;;;;5.50;2.08;;;;;;;19.77;73.68;98999.91;7750576;32;40031;-73
2022/08/22 00:19:40;;;;;;;3.00;2.30;;;;;;;19.77;72.98;98999.91;7752519;32;40800;-73
2022/08/22 00:23:56;;;;;;;;;;;;;;;20.06;71.64;98997.94;7759000;32;37863;-73
2022/08/22 00:28:29;;;;;;;4.68;2.05;;;;;;;19.79;72.94;99003.13;7766251;32;36965;-73
2022/08/22 00:33:00;;;;;;;3.35;2.08;;;;;;;19.75;73.06;99005.00;7752787;32;39287;-74
2022/08/22 00:37:24;;;;;;;5.53;2.15;;;;;;;19.52;73.70;99008.28;7753534;32;40967;-73
2022/08/22 00:41:54;;;;;;;5.37;2.50;;;;;;;20.02;71.94;99006.16;7765941;32;37867;-73
2022/08/22 00:46:37;;;;;;;4.90;2.60;;;;;;;19.91;72.17;99002.28;7785126;32;37016;-73
2022/08/22 00:51:21;;;;;;;3.40;2.42;;;;;;;19.72;73.40;99007.63;7781450;32;40209;-73
2022/08/22 00:56:01;;;;;;;2.78;1.90;;;;;;;19.93;72.23;98999.16;7792837;32;40613;-73
2022/08/22 01:00:29;;;;;;;6.00;1.80;;;;;;;20.17;70.64;99001.78;7792843;32;38355;-73
2022/08/22 01:05:08;;;;;;;4.10;2.00;;;;;;;20.18;70.82;98992.31;7780162;32;37002;-73
2022/08/22 01:09:36;;;;;;;5.85;2.42;;;;;;;19.69;72.50;98987.00;7767529;32;39988;-73
2022/08/22 01:14:40;;;;;;;5.05;2.00;;;;;;;19.98;71.96;98987.84;7789020;32;39963;-73
2022/08/22 01:19:08;;;;;;;3.42;1.80;;;;;;;20.08;71.30;98981.78;7748863;32;38574;-73
2022/08/22 01:23:43;;;;;;;3.78;1.70;;;;;;;19.63;72.46;98986.47;7791789;32;37810;-73
2022/08/22 01:28:35;;;;;;;3.30;2.20;;;;;;;19.36;73.06;98985.28;7792355;32;39777;-73
2022/08/22 01:33:12;;;;;;;4.20;2.00;;;;;;;19.62;72.00;98984.06;8016914;26;39941;-73
2022/08/22 01:37:46;;;;;;;3.65;1.92;;;;;;;19.19;73.97;98980.06;7763272;32;38740;-74
2022/08/22 01:42:14;;;;;;;4.68;2.05;;;;;;;19.89;71.23;98985.22;7765252;32;37345;-73
2022/08/22 01:46:50;;;;;;;3.70;2.05;;;;;;;20.04;70.77;98980.88;7747017;32;39336;-73
2022/08/22 01:51:22;;;;;;;9.88;2.28;;;;;;;20.04;70.67;98980.88;7738106;32;39883;-72
2022/08/22 01:55:52;;;;;;;10.25;2.33;;;;;;;20.13;70.59;98977.94;7749353;32;37665;-73
2022/08/22 02:00:15;;;;;;;6.53;2.45;;;;;;;20.25;70.64;98986.97;7763756;32;37044;-73
2022/08/22 02:04:47;;;;;;;2.42;1.95;;;;;;;20.10;70.94;98976.69;7758082;32;39277;-74
2022/08/22 02:09:22;;;;;;;4.10;2.30;;;;;;;20.35;70.45;98974.56;7736708;32;40812;-74
2022/08/22 02:13:55;;;;;;;5.95;2.42;;;;;;;20.31;71.05;98967.34;7736707;32;37881;-74
2022/08/22 02:18:24;;;;;;;3.42;2.47;;;;;;;20.40;70.77;98965.19;7737878;32;37655;-73
2022/08/22 02:22:59;;;;;;;5.20;2.80;;;;;;;20.42;70.65;98965.63;7736505;32;39262;-74
2022/08/22 02:27:30;;;;;;;4.97;2.87;;;;;;;20.47;70.47;98964.56;7758389;32;40710;-73
2022/08/22 02:31:54;;;;;;;7.80;2.67;;;;;;;20.51;70.38;98959.94;7764116;32;38545;-73
2022/08/22 02:36:40;;;;;;;7.53;2.65;;;;;;;20.41;70.41;98961.25;7745917;32;36344;-73
2022/08/22 02:41:14;;;;;;;7.70;2.72;;;;;;;20.48;70.21;98961.44;7736414;32;39322;-73
2022/08/22 02:45:56;;;;;;;4.85;2.70;;;;;;;20.50;70.07;98948.03;7748983;32;39955;-73
2022/08/22 02:50:22;;;;;;;6.37;2.83;;;;;;;20.49;70.09;98949.22;7763007;32;38493;-73
2022/08/22 02:54:47;;;;;;;7.22;2.92;;;;;;;20.40;70.41;98959.63;7756346;32;36957;-73
2022/08/22 02:59:36;;;;;;;4.57;2.90;;;;;;;20.55;69.95;98958.84;7735584;32;39352;-73
2022/08/22 03:04:12;;;;;;;9.00;3.08;;;;;;;20.56;69.74;98952.13;7738174;32;39683;-73
2022/08/22 03:08:34;;;;;;;5.53;3.30;;;;;;;20.50;69.92;98941.69;7740437;32;37770;-73
2022/08/22 03:13:06;;;;;;;7.60;3.67;;;;;;;20.38;70.46;98953.66;7736635;32;37195;-73
2022/08/22 03:17:27;;;;;;;9.23;3.85;;;;;;;20.40;70.20;98954.94;7763953;32;39133;-73
2022/08/22 03:21:51;;;;;;;7.30;3.50;;;;;;;20.52;70.02;98959.53;7766936;32;40020;-73
2022/08/22 03:26:25;;;;;;;13.43;4.30;;;;;;;20.50;69.73;98953.56;7749249;32;38133;-73
2022/08/22 03:30:55;;;;;;;10.68;4.12;;;;;;;20.56;69.63;98963.22;7739574;32;37947;-73
2022/08/22 03:35:21;;;;;;;9.60;4.50;;;;;;;20.46;69.95;98963.75;7748005;32;39406;-73
2022/08/22 03:39:43;;;;;;;9.88;4.95;;;;;;;20.50;69.70;98958.31;7765568;32;40785;-73
2022/08/22 03:44:18;;;;;;;8.83;4.43;;;;;;;20.58;69.36;98960.88;7763930;32;38351;-73
2022/08/22 03:48:50;;;;;;;11.77;5.43;;;;;;;20.47;69.86;98954.28;7739484;32;37070;-73
2022/08/22 03:53:39;;;;;;;14.68;5.72;;;;;;;20.50;69.68;98952.78;7739548;32;40043;-74
2022/08/22 03:58:15;;;;;;;15.13;5.82;;;;;;;20.36;70.26;98950.47;7766308;32;39920;-74
2022/08/22 04:02:49;;;;;;;14.05;5.57;;;;;;;20.61;69.75;98953.81;7766358;32;38764;-74
2022/08/22 04:07:31;;;;;;;14.00;5.40;;;;;;;20.44;70.39;98971.63;7744563;32;37907;-73
2022/08/22 04:12:07;;;;;;;12.57;5.25;;;;;;;20.52;70.13;98962.31;7739249;32;39114;-74
2022/08/22 04:16:44;;;;;;;13.18;5.32;;;;;;;20.64;69.92;98964.22;7755658;32;39987;-73
2022/08/22 04:21:28;;;;;;;10.73;6.28;;;;;;;20.56;70.35;98968.75;7765758;32;38544;-73
2022/08/22 04:25:52;;;;;;;10.65;5.32;;;;;;;20.57;70.48;98962.03;7761817;32;36966;-73
2022/08/22 04:30:24;;;;;;;8.75;5.60;;;;;;;20.75;69.75;98972.78;7765178;32;39781;-73
2022/08/22 04:34:52;;;;;;;8.30;5.03;;;;;;;20.61;70.50;98976.78;7760295;32;39725;-74
2022/08/22 04:39:11;;;;;;;12.15;5.70;;;;;;;20.66;70.50;98978.50;7737885;32;37634;-74
2022/08/22 04:43:37;;;;;;;12.75;4.95;;;;;;;20.68;70.55;98980.91;7738832;32;37271;-74
2022/08/22 04:47:59;;;;;;;14.57;5.80;;;;;;;20.67;70.61;98991.19;7763108;32;40059;-78
2022/08/22 04:52:30;;;;;;;7.93;5.53;;;;;;;20.78;70.19;98986.72;7764247;32;39907;-76
2022/08/22 04:57:30;;;;;;;9.15;5.25;;;;;;;20.95;70.32;98990.25;7745800;32;37884;-74
2022/08/22 05:01:55;;;;;;;15.68;5.80;;;;;;;20.82;70.50;98993.13;7738688;32;36971;-73
2022/08/22 05:06:14;;;;;;;9.38;5.25;;;;;;;21.03;69.51;98994.00;7751652;32;40021;-73
2022/08/22 05:10:36;;;;;;;11.23;6.20;;;;;;;20.73;70.31;98998.06;7760566;32;39942;-74
2022/08/22 05:15:01;;;;;;;13.68;4.90;;;;;;;20.84;70.25;98994.75;7746825;32;38183;-73
2022/08/22 05:19:34;;;;;;;27.65;6.55;;;;;;;20.84;70.24;99005.84;7756120;32;38155;-75
2022/08/22 05:24:25;;;;;;;27.80;7.47;;;;;;;20.89;70.26;99000.81;7764180;32;39332;-73
2022/08/22 05:28:48;;;;;;;23.15;8.50;;;;;;;20.94;69.98;99005.28;7763756;32;40739;-73
2022/08/22 05:33:25;;;;;;;13.90;7.62;;;;;;;20.66;70.99;99016.47;7738049;32;38601;-73
2022/08/22 05:37:48;;;;;;;13.80;7.90;;;;;;;20.54;71.97;99023.69;7737867;32;37885;-74
2022/08/22 05:42:10;;;;;;;11.82;6.57;;;;;;;20.70;71.19;99018.16;7747970;32;39409;-75
2022/08/22 05:46:42;;;;;;;11.90;7.25;;;;;;;20.89;70.57;99024.94;7737977;32;39819;-74
2022/08/22 05:51:24;;;;;;;11.10;7.07;;;;;;;20.83;70.83;99018.84;7736712;32;37722;-73
2022/08/22 05:55:51;;;;;;;11.45;7.00;;;;;;;21.14;70.26;99022.72;7737945;32;36989;-75
2022/08/22 06:00:11;;;;;;;15.15;6.90;;;;;;;21.14;70.23;99031.06;7736672;32;39344;-74
2022/08/22 06:04:46;;;;;;;13.32;7.80;;;;;;;21.32;69.54;99037.81;7737393;32;39746;-73
2022/08/22 06:09:05;;;;;;;11.43;6.97;;;;;;;21.30;69.47;99033.78;7737436;32;37702;-73
2022/08/22 06:13:44;;;;;;;11.10;6.87;;;;;;;21.23;69.23;99040.00;7737614;32;37413;-73
2022/08/22 06:18:09;;;;;;;10.30;6.07;;;;;;;21.24;69.62;99047.13;7737605;32;39114;-73
2022/08/22 06:22:28;;;;;;;12.05;6.45;;;;;;;21.41;69.49;99045.12;7736330;32;40053;-74
2022/08/22 06:26:48;;;;;;;9.88;6.15;;;;;;;21.49;68.33;99055.22;7736038;32;37946;-73
2022/08/22 06:31:06;;;;;;;11.68;5.87;;;;;;;21.41;68.86;99050.66;7736045;32;36891;-73
2022/08/22 06:35:25;;;;;;;9.90;5.70;;;;;;;21.46;69.28;99051.22;7737172;32;39399;-73
2022/08/22 06:39:44;;;;;;;9.15;6.10;;;;;;;21.56;69.13;99052.62;7748727;32;40852;-74
2022/08/22 06:44:00;;;;;;;12.25;6.45;;;;;;;21.30;70.04;99051.22;7739907;32;38384;-75
2022/08/22 06:48:20;;;;;;;10.85;6.30;;;;;;;21.68;68.66;99052.47;7736197;32;37989;-74
2022/08/22 06:53:10;;;;;;;11.48;6.30;;;;;;;21.57;69.06;99059.75;7740172;32;39837;-74
2022/08/22 06:57:32;;;;;;;9.63;5.95;;;;;;;21.55;69.01;99062.09;7713758;32;40547;-74
2022/08/22 07:02:21;;;;;;;11.32;6.65;;;;;;;21.62;68.96;99072.53;7739968;32;37780;-74
2022/08/22 07:06:43;;;;;;;11.25;6.60;;;;;;;21.57;68.93;99068.88;7739706;32;38326;-74
2022/08/22 07:11:22;;;;;;;13.23;7.80;;;;;;;21.58;69.79;99066.91;7739171;32;38955;-73
2022/08/22 07:15:41;;;;;;;11.63;6.20;;;;;;;21.75;69.53;99076.78;7738847;32;39921;-73
2022/08/22 07:20:30;;;;;;;10.98;6.28;;;;;;;21.78;68.93;99078.00;7739934;32;36100;-74
2022/08/22 07:24:51;;;;;;;10.75;6.40;;;;;;;21.42;70.08;99075.25;7738333;32;37167;-73
2022/08/22 07:29:26;;;;;;;11.70;5.72;;;;;;;22.09;69.08;99069.56;7738361;32;39334;-73
2022/08/22 07:33:47;;;;;;;11.73;5.55;;;;;;;22.10;67.71;99071.13;7740777;32;40802;-74
2022/08/22 07:38:41;;;;;;;10.60;5.80;;;;;;;22.19;68.08;99079.22;7738375;32;38567;-73
2022/08/22 07:43:03;;;;;;;8.25;5.28;;;;;;;22.28;68.16;99077.06;7738581;32;38119;-74
2022/08/22 07:47:21;;;;;;;10.35;6.00;;;;;;;22.22;67.79;99083.25;7736098;32;39429;-73
2022/08/22 07:52:04;;;;;;;11.43;5.90;;;;;;;22.03;67.57;99084.88;7736074;32;39645;-74
2022/08/22 07:56:29;;;;;;;10.23;6.60;;;;;;;22.44;67.42;99082.53;7737542;32;38657;-75
2022/08/22 08:00:45;;;;;;;14.00;6.78;;;;;;;22.22;67.08;99080.50;7736229;32;36959;-74
2022/08/22 08:05:01;;;;;;;9.88;5.97;;;;;;;22.46;67.31;99084.94;7763525;32;38797;-73
2022/08/22 08:09:18;;;;;;;12.65;6.47;;;;;;;22.20;67.16;99085.59;7758957;32;39910;-74
2022/08/22 08:13:38;;;;;;;10.98;5.90;;;;;;;22.37;66.36;99096.28;7755454;32;37988;-73
2022/08/22 08:17:59;;;;;;;10.93;6.45;;;;;;;22.92;66.34;99086.87;7765510;32;37867;-75
2022/08/22 08:22:18;;;;;;;11.20;5.87;;;;;;;23.32;65.81;99088.31;7764027;32;40129;-74
2022/08/22 08:31:37;;;;;;;9.43;5.75;;;;;;;23.42;64.62;99077.38;7763789;32;37668;-74
2022/08/22 08:36:04;;;;;;;11.55;5.80;;;;;;;23.58;64.62;99085.53;7765466;32;37056;-73
2022/08/22 08:40:32;;;;;;;12.93;6.12;;;;;;;23.11;64.53;99089.62;7745336;32;39101;-74
2022/08/22 08:44:57;;;;;;;10.27;6.03;;;;;;;22.85;66.37;99093.94;7738026;32;39841;-73
2022/08/22 08:49:31;;;;;;;11.05;5.87;;;;;;;23.76;64.26;99082.97;7737240;32;37970;-73
2022/08/22 08:54:22;;;;;;;11.73;6.43;;;;;;;23.75;64.08;99086.13;7736319;32;36990;-74
2022/08/22 08:58:51;;;;;;;10.80;6.47;;;;;;;24.09;63.01;99091.75;7738847;32;40268;-73
2022/08/22 09:03:23;;;;;;;11.40;6.18;;;;;;;23.30;65.83;99091.50;7738668;32;40779;-73
2022/08/22 09:08:19;;;;;;;12.75;6.05;;;;;;;23.83;64.29;99076.75;7738555;32;37856;-74
2022/08/22 09:13:00;;;;;;;12.18;5.80;;;;;;;24.44;64.58;99088.56;7738097;32;37173;-74
2022/08/22 09:17:36;;;;;;;9.20;5.22;;;;;;;24.43;62.86;99088.97;7738006;32;40135;-74
2022/08/22 09:22:30;;;;;;;14.05;6.45;;;;;;;24.27;64.07;99087.19;7737134;32;40483;-74
2022/08/22 09:27:14;;;;;;;9.75;5.97;;;;;;;24.25;63.82;99086.78;7738296;32;37977;-74
2022/08/22 09:31:33;;;;;;;10.35;5.90;;;;;;;24.12;63.47;99099.38;7737272;32;37141;-74
2022/08/22 09:36:24;;;;;;;9.27;5.53;;;;;;;24.36;63.38;99086.91;7737243;32;39248;-74
2022/08/22 09:40:55;;;;;;;12.18;5.72;;;;;;;24.19;63.75;99085.50;7737244;32;40762;-75
2022/08/22 09:45:35;;;;;;;11.18;6.15;;;;;;;24.37;64.45;99075.38;7738128;32;37946;-74
2022/08/22 09:50:08;;;;;;;12.05;5.35;;;;;;;24.58;62.89;99071.22;7738083;32;37184;-74
2022/08/22 09:54:44;;;;;;;13.07;6.12;;;;;;;24.95;63.52;99070.34;7738670;32;39372;-75
2022/08/22 09:59:10;;;;;;;10.10;5.43;;;;;;;25.37;61.40;99069.09;7737760;32;40828;-74
2022/08/22 10:04:11;;;;;;;10.70;5.82;;;;;;;25.73;59.60;99062.87;7737806;32;37941;-74
2022/08/22 10:08:45;;;;;;;9.55;5.80;;;;;;;25.47;59.82;99071.13;7737710;32;37957;-74
2022/08/22 10:13:32;;;;;;;10.80;6.05;;;;;;;24.24;62.93;99082.38;7737862;32;39287;-73
2022/08/22 10:18:24;;;;;;;13.82;5.87;;;;;;;24.55;62.40;99075.56;7749450;32;40001;-74
2022/08/22 10:22:50;;;;;;;10.98;5.50;;;;;;;25.25;61.36;99072.13;7737478;32;37903;-74
2022/08/22 10:27:17;;;;;;;12.32;6.37;;;;;;;24.37;62.33;99074.59;7750716;32;37059;-74
2022/08/22 10:31:34;;;;;;;10.80;5.62;;;;;;;25.08;61.34;99074.44;7763162;32;39082;-74
2022/08/22 10:36:19;;;;;;;11.90;6.25;;;;;;;24.47;62.64;99073.88;7752856;32;39709;-74
2022/08/22 10:40:57;;;;;;;14.05;5.82;;;;;;;24.37;63.11;99067.03;7742977;32;38642;-74
2022/08/22 10:45:26;;;;;;;11.52;6.20;;;;;;;24.61;62.75;99076.03;7737063;32;37306;-74
2022/08/22 10:49:55;;;;;;;9.70;5.82;;;;;;;24.87;61.18;99071.47;7736895;32;39330;-72
2022/08/22 10:54:25;;;;;;;10.60;6.03;;;;;;;24.91;61.71;99072.31;7735697;32;39929;-73
2022/08/22 10:58:53;;;;;;;11.50;5.62;;;;;;;25.51;59.38;99070.31;7735349;32;38653;-75
2022/08/22 11:03:40;;;;;;;9.52;5.55;;;;;;;25.20;60.07;99070.53;7760308;32;37848;-74
2022/08/22 11:08:21;;;;;;;12.52;4.95;;;;;;;25.41;60.16;99069.88;7762093;32;40023;-75
2022/08/22 11:12:47;;;;;;;11.75;5.57;;;;;;;25.77;59.28;99058.91;7762454;32;39489;-74
2022/08/22 11:17:23;;;;;;;11.10;5.22;;;;;;;25.78;59.76;99057.69;7761691;32;37792;-74
2022/08/22 11:21:46;;;;;;;;;;;;;;;26.57;55.75;99055.13;7736464;32;36875;-73
2022/08/22 11:26:23;;;;;;;12.20;7.28;;;;;;;26.15;57.43;99055.87;7743087;32;40244;-73
2022/08/22 11:31:15;;;;;;;13.18;6.28;;;;;;;25.81;57.79;99053.34;7743369;32;39879;-73
2022/08/22 11:35:35;;;;;;;12.35;6.30;;;;;;;25.39;57.48;99058.31;7737408;32;38044;-74
2022/08/22 11:40:19;;;;;;;14.18;6.20;;;;;;;25.97;58.61;99055.81;7739636;32;37904;-74
2022/08/22 11:44:45;;;;;;;;;;;;;;;25.90;57.43;99055.75;7739034;32;40140;-74
2022/08/22 11:49:22;;;;;;;15.32;5.93;;;;;;;26.12;55.49;99057.47;7739739;32;39967;-74
2022/08/22 11:53:47;;;;;;;7.72;4.97;;;;;;;26.72;54.56;99056.00;7739492;32;38649;-74
2022/08/22 11:58:31;;;;;;;10.65;5.57;;;;;;;27.12;54.16;99047.56;7738352;32;37723;-74
2022/08/22 12:03:00;;;;;;;10.52;5.95;;;;;;;27.38;54.40;99045.56;7737324;32;39100;-74
2022/08/22 12:07:29;;;;;;;11.38;5.18;;;;;;;26.68;54.72;99049.59;7739326;32;40626;-75
2022/08/22 12:12:09;;;;;;;11.00;5.32;;;;;;;26.95;53.71;99049.97;7738000;32;37966;-74
2022/08/22 12:16:25;;;;;;;9.93;5.50;;;;;;;27.31;53.53;99046.38;7738226;32;38090;-74
2022/08/22 12:21:18;;;;;;;10.20;5.50;;;;;;;27.48;54.12;99037.12;7739304;32;39350;-74
2022/08/22 12:25:54;;;;;;;10.25;5.95;;;;;;;27.51;53.29;99038.31;7739067;32;39728;-74
2022/08/22 12:30:17;;;;;;;9.27;5.10;;;;;;;27.45;53.40;99029.53;7738719;32;38044;-73
2022/08/22 12:34:45;;;;;;;11.20;5.30;;;;;;;27.37;52.63;99025.16;7739017;32;37818;-74
2022/08/22 12:39:38;;;;;;;9.23;5.50;;;;;;;27.45;53.18;99020.34;7737852;32;39391;-73
2022/08/22 12:44:07;;;;;;;9.65;5.07;;;;;;;27.14;54.23;99009.59;7738828;32;39971;-73
2022/08/22 12:48:58;;;;;;;8.15;5.43;;;;;;;27.64;53.45;99007.88;7738022;32;37986;-74
2022/08/22 12:53:38;;;;;;;11.25;5.00;;;;;;;28.45;52.22;99005.81;7739049;32;37677;-74
2022/08/22 12:58:13;;;;;;;9.63;5.25;;;;;;;28.88;49.63;99004.69;7737487;32;40011;-74
2022/08/22 13:02:34;;;;;;;8.80;5.12;;;;;;;28.11;50.81;99014.06;7736146;32;39695;-74
2022/08/22 13:06:54;;;;;;;12.30;4.80;;;;;;;27.18;54.53;99020.78;7737394;32;36980;-74
2022/08/22 13:11:13;;;;;;;8.00;5.05;;;;;;;27.22;54.04;99010.37;7738063;32;37937;-74
2022/08/22 13:15:41;;;;;;;9.32;5.80;;;;;;;26.76;55.76;99006.44;7737579;32;39505;-73
2022/08/22 13:20:27;;;;;;;12.05;5.30;;;;;;;26.75;56.27;99004.06;7738544;32;39673;-74
2022/08/22 13:24:55;;;;;;;11.32;5.70;;;;;;;26.09;56.63;99001.59;7736682;32;38724;-74
2022/08/22 13:29:24;;;;;;;11.02;5.72;;;;;;;26.48;57.32;98998.84;7737209;32;37836;-74
2022/08/22 13:33:46;;;;;;;13.35;5.55;;;;;;;26.92;57.08;99002.44;7737731;32;40158;-77
2022/08/22 13:38:22;;;;;;;11.25;5.95;;;;;;;27.17;54.85;99000.41;7737132;32;40901;-77
2022/08/22 13:42:47;;;;;;;11.57;6.47;;;;;;;26.88;55.56;99015.66;7738056;32;38742;-76
2022/08/22 13:47:08;;;;;;;10.33;6.33;;;;;;;26.53;58.06;99008.84;7738236;32;37401;-76
2022/08/22 13:51:54;;;;;;;11.70;6.53;;;;;;;26.39;58.48;98999.25;7737133;32;40103;-75
2022/08/22 13:56:24;;;;;;;12.98;6.40;;;;;;;27.00;56.07;99000.44;7751687;32;40696;-74
2022/08/22 14:01:02;;;;;;;9.32;5.82;;;;;;;27.06;54.29;98996.03;7764143;32;38703;-74
2022/08/22 14:05:43;;;;;;;11.55;5.78;;;;;;;26.93;54.55;99007.63;7764336;32;37094;-74
2022/08/22 14:10:06;;;;;;;10.40;5.50;;;;;;;25.94;55.88;98995.13;7764174;32;39725;-74
2022/08/22 14:14:32;;;;;;;8.23;4.45;;;;;;;26.13;54.50;99006.00;7764718;32;41152;-74
2022/08/22 14:18:53;;;;;;;6.70;4.00;;;;;;;26.46;53.97;99001.25;7762572;32;37328;-74
2022/08/22 14:23:28;;;;;;;6.45;3.53;;;;;;;26.72;52.21;99008.47;7764169;32;37944;-74
2022/08/22 14:27:51;;;;;;;6.25;3.45;;;;;;;26.18;54.08;99011.19;7762807;32;39096;-74
2022/08/22 14:32:30;;;;;;;5.50;3.35;;;;;;;26.28;52.65;99006.81;7762477;32;40824;-74
2022/08/22 14:37:17;;;;;;;8.90;4.93;;;;;;;25.36;53.96;99017.25;7763721;32;37917;-75
2022/08/22 14:41:50;;;;;;;;;;;;;;;25.03;55.88;99019.03;7756870;32;37136;-74
2022/08/22 14:46:17;;;;;;;7.18;4.25;;;;;;;24.82;56.50;99021.66;7762296;32;39626;-74
2022/08/22 14:50:37;;;;;;;7.72;3.90;;;;;;;24.62;55.99;99027.47;7762617;32;39918;-75
2022/08/22 14:55:07;;;;;;;5.57;3.45;;;;;;;25.03;55.58;99027.38;7763205;32;38095;-74
2022/08/22 14:59:49;;;;;;;5.93;4.12;;;;;;;24.34;57.45;99048.28;7762067;32;37717;-74
2022/08/22 15:04:11;;;;;;;6.00;3.90;;;;;;;23.93;60.47;99059.38;7762001;32;39414;-74
2022/08/22 15:08:33;;;;;;;8.48;4.53;;;;;;;23.94;59.16;99052.62;7761262;32;39767;-75
2022/08/22 15:12:52;;;;;;;12.68;4.30;;;;;;;24.15;58.81;99057.63;7765289;32;38701;-74
2022/08/22 15:17:09;;;;;;;10.57;4.60;;;;;;;23.56;60.67;99062.87;7764688;32;37288;-74
2022/08/22 15:21:31;;;;;;;8.52;4.62;;;;;;;23.77;61.73;99055.97;7765569;32;40026;-74
2022/08/22 15:26:04;;;;;;;8.50;4.40;;;;;;;23.92;61.88;99070.87;7766328;32;40006;-74
2022/08/22 15:30:35;;;;;;;8.40;4.50;;;;;;;23.52;62.90;99075.12;7764763;32;37900;-75
2022/08/22 15:35:01;;;;;;;7.12;4.32;;;;;;;23.12;65.57;99082.09;7766529;32;37029;-75
2022/08/22 15:39:33;;;;;;;10.35;4.47;;;;;;;23.09;65.95;99089.19;7766081;32;39314;-75
2022/08/22 15:44:20;;;;;;;6.85;3.70;;;;;;;23.43;65.78;99101.22;7765372;32;40764;-73
2022/08/22 15:48:56;;;;;;;8.38;3.70;;;;;;;22.82;68.37;99091.12;7765744;32;38772;-74
2022/08/22 15:53:25;;;;;;;8.27;3.85;;;;;;;22.83;68.09;99096.28;7766222;32;37257;-74
2022/08/22 15:57:48;;;;;;;7.45;3.45;;;;;;;22.89;68.26;99102.34;7765987;32;40144;-75
2022/08/22 16:02:21;;;;;;;6.97;3.95;;;;;;;22.88;68.78;99095.97;7764531;32;39595;-75
2022/08/22 16:06:50;;;;;;;7.32;4.35;;;;;;;22.71;69.68;99099.25;7765832;32;38698;-75
2022/08/22 16:11:30;;;;;;;8.13;4.45;;;;;;;22.44;71.43;99101.97;7765707;32;37658;-75
2022/08/22 16:15:48;;;;;;;11.35;4.47;;;;;;;22.62;71.05;99116.16;7765958;32;39258;-75
2022/08/22 16:20:11;;;;;;;7.45;4.05;;;;;;;22.68;70.58;99117.47;7764808;32;39208;-75
2022/08/22 16:24:56;;;;;;;7.22;3.87;;;;;;;23.00;69.73;99121.97;7765654;32;38720;-76
2022/08/22 16:29:18;;;;;;;8.50;4.32;;;;;;;21.84;73.90;99115.41;7765417;32;37167;-75
2022/08/22 16:33:37;;;;;;;8.55;4.40;;;;;;;22.59;71.66;99124.44;7765905;32;39802;-75
2022/08/22 16:37:54;;;;;;;7.85;3.78;;;;;;;22.53;71.46;99123.16;7765586;32;39977;-75
2022/08/22 16:42:21;;;;;;;8.02;4.12;;;;;;;22.29;71.68;99111.19;7765407;32;38536;-75
2022/08/22 16:46:40;;;;;;;7.45;3.45;;;;;;;22.19;72.40;99103.41;7765347;32;37398;-75
2022/08/22 16:51:20;;;;;;;6.65;3.55;;;;;;;21.44;74.31;99105.38;7765323;32;40080;-75
2022/08/22 16:55:45;;;;;;;5.57;3.28;;;;;;;21.70;72.87;99108.38;7765514;32;39928;-75
2022/08/22 17:00:11;;;;;;;5.12;3.28;;;;;;;21.41;73.59;99111.66;7763780;32;37827;-75
2022/08/22 17:04:58;;;;;;;9.10;3.78;;;;;;;21.58;72.73;99100.19;7752632;32;36857;-75
2022/08/22 17:09:30;;;;;;;5.80;3.85;;;;;;;21.89;71.72;99106.78;7764358;32;40001;-75
2022/08/22 17:13:47;;;;;;;5.03;3.47;;;;;;;21.98;70.96;99121.25;7764838;32;40719;-75
2022/08/22 17:18:43;;;;;;;10.23;3.45;;;;;;;22.00;70.15;99113.34;7765168;32;37922;-75
2022/08/22 17:23:22;;;;;;;3.17;1.95;;;;;;;21.94;71.35;99140.59;7764847;32;37202;-75
2022/08/22 17:27:42;;;;;;;8.50;2.15;;;;;;;22.10;70.31;99159.94;7765086;32;39997;-75
2022/08/22 17:32:36;;;;;;;5.55;2.17;;;;;;;22.02;69.10;99171.28;7764069;32;40054;-75
2022/08/22 17:37:12;;;;;;;4.78;2.12;;;;;;;22.12;69.67;99177.03;7763657;32;37822;-75
2022/08/22 17:41:48;;;;;;;3.10;1.52;;;;;;;22.02;69.73;99183.16;7765053;32;37789;-74
2022/08/22 17:46:13;;;;;;;4.22;1.67;;;;;;;21.85;68.78;99189.12;7764682;32;39900;-75
2022/08/22 17:50:55;;;;;;;3.42;1.98;;;;;;;21.83;68.87;99188.69;7763865;32;40774;-74
2022/08/22 17:55:26;;;;;;;2.58;1.58;;;;;;;21.96;68.45;99197.72;7761379;32;37791;-74
2022/08/22 18:00:14;;;;;;;6.37;1.95;;;;;;;21.81;68.00;99191.84;7763363;32;37013;-76
2022/08/22 18:05:02;;;;;;;5.45;2.00;;;;;;;21.65;69.39;99191.88;7764988;32;39991;-74
2022/08/22 18:09:33;;;;;;;3.42;2.00;;;;;;;21.73;69.57;99185.31;7728652;32;290765;-75
2022/08/22 18:13:55;;;;;;;4.97;2.20;;;;;;;21.75;69.93;99183.00;7737676;32;38717;-74
2022/08/22 18:18:18;;;;;;;7.70;2.70;;;;;;;21.69;70.22;99189.97;7737219;32;37225;-75
2022/08/22 18:22:51;;;;;;;4.35;2.20;;;;;;;21.88;69.47;99185.63;7736307;32;39961;-75
2022/08/22 18:27:16;;;;;;;6.00;2.78;;;;;;;21.99;68.69;99181.16;7737034;32;40727;-75
2022/08/22 18:32:11;;;;;;;4.37;2.40;;;;;;;21.99;69.22;99174.75;7736796;32;37918;-74
2022/08/22 18:36:31;;;;;;;6.15;2.55;;;;;;;21.83;69.44;99189.50;7737182;32;37131;-74
2022/08/22 18:41:16;;;;;;;4.18;2.42;;;;;;;21.91;69.13;99196.03;7740455;32;39283;-75
2022/08/22 18:45:45;;;;;;;7.72;2.35;;;;;;;21.75;70.06;99198.84;7727277;32;40664;-74
2022/08/22 18:50:31;;;;;;;2.92;1.87;;;;;;;21.79;69.68;99207.25;7736948;32;37959;-73
2022/08/22 18:55:02;;;;;;;2.03;1.70;;;;;;;21.46;70.33;99223.13;7726205;32;37006;-73
2022/08/22 18:59:28;;;;;;;4.53;2.00;;;;;;;21.72;69.19;99230.06;7737456;32;39342;-73
2022/08/22 19:04:08;;;;;;;3.15;1.55;;;;;;;21.78;69.01;99236.94;7735579;32;40828;-75
2022/08/22 19:09:02;;;;;;;2.53;1.80;;;;;;;21.68;68.89;99243.03;7740218;32;38528;-75
2022/08/22 19:13:54;;;;;;;3.62;1.80;;;;;;;21.14;70.29;99230.59;7707406;32;37712;-75
2022/08/22 19:18:20;;;;;;;4.75;1.80;;;;;;;21.14;70.12;99238.91;7760549;32;39287;-74
2022/08/22 19:22:36;;;;;;;2.05;1.77;;;;;;;21.23;69.81;99239.56;7754082;32;39686;-74
2022/08/22 19:27:16;;;;;;;2.95;2.12;;;;;;;21.20;70.21;99251.34;7743338;32;38093;-74
2022/08/22 19:31:38;;;;;;;3.78;2.15;;;;;;;21.49;69.36;99246.53;7735492;32;37005;-74
2022/08/22 19:35:55;;;;;;;2.05;1.77;;;;;;;21.44;69.66;99242.06;7735726;32;39563;-74
2022/08/22 19:40:32;;;;;;;3.65;2.08;;;;;;;21.35;69.82;99247.78;7762290;32;39375;-74
2022/08/22 19:44:54;;;;;;;2.90;1.70;;;;;;;21.56;69.19;99239.22;7761194;32;38283;-73
2022/08/22 19:49:35;;;;;;;6.53;2.08;;;;;;;21.74;68.13;99236.84;7762251;32;37965;-74
2022/08/22 19:54:17;;;;;;;4.20;2.00;;;;;;;21.68;68.37;99232.75;7762346;32;39824;-74
2022/08/22 19:58:51;;;;;;;3.47;1.87;;;;;;;21.59;68.89;99234.91;7764804;32;40821;-74
2022/08/22 20:03:11;;;;;;;3.92;2.08;;;;;;;21.62;69.18;99239.75;7766059;32;38634;-73
2022/08/22 20:07:41;;;;;;;6.50;2.10;;;;;;;21.45;69.88;99234.53;7766114;32;37042;-72
2022/08/22 20:12:06;;;;;;;4.82;2.17;;;;;;;21.62;69.43;99231.41;7766011;32;39952;-74
2022/08/22 20:17:04;;;;;;;9.23;2.20;;;;;;;21.67;69.11;99236.69;7741839;32;39960;-74
2022/08/22 20:21:38;;;;;;;;;;;;;;;21.69;68.93;99223.25;7739212;32;38679;-74
2022/08/22 20:25:56;;;;;;;4.20;2.53;;;;;;;21.76;68.46;99217.88;7751167;32;37521;-74
2022/08/22 20:30:15;;;;;;;3.60;2.25;;;;;;;21.64;68.64;99219.97;7757087;32;40386;-74
2022/08/22 20:34:35;;;;;;;5.47;2.50;;;;;;;21.65;68.77;99221.59;7764482;32;39931;-74
2022/08/22 20:38:55;;;;;;;13.18;3.03;;;;;;;21.71;68.77;99223.72;7757199;32;38674;-74
2022/08/22 20:43:31;;;;;;;7.62;3.72;;;;;;;21.61;69.50;99215.13;7757196;32;36897;-74
2022/08/22 20:47:49;;;;;;;8.60;3.95;;;;;;;21.72;68.96;99208.69;7758803;32;39400;-74
2022/08/22 20:52:29;;;;;;;8.85;5.12;;;;;;;21.81;68.90;99202.13;7746039;32;40930;-73
2022/08/22 20:56:56;;;;;;;11.63;5.93;;;;;;;21.59;69.40;99201.63;7765643;32;37919;-74
2022/08/22 21:01:12;;;;;;;16.15;6.37;;;;;;;21.54;68.79;99199.13;7752464;32;37809;-76
2022/08/22 21:05:43;;;;;;;12.48;6.50;;;;;;;21.26;69.52;99202.00;7741536;32;39318;-75
2022/08/22 21:14:56;;;;;;;11.18;5.47;;;;;;;21.53;68.64;99208.63;7765333;32;38001;-74
2022/08/22 21:19:24;;;;;;;7.65;4.10;;;;;;;21.31;69.43;99202.50;7764708;32;38144;-74
2022/08/22 21:23:42;;;;;;;8.65;4.28;;;;;;;21.08;69.13;99207.09;7765538;32;40557;-74